createdAt,value
2018-05-12T00:00:05.333Z,12.25
2018-05-12T00:01:05.325Z,12.25
2018-05-12T00:02:05.318Z,12.18
2018-05-12T00:03:05.311Z,12.29
2018-05-12T00:04:05.302Z,12.22
2018-05-12T00:05:05.294Z,12.15
2018-05-12T00:06:05.286Z,12.13
2018-05-12T00:07:05.284Z,12.22
2018-05-12T00:08:05.270Z,12.22
2018-05-12T00:09:05.262Z,12.25
2018-05-12T00:10:05.255Z,12.21
2018-05-12T00:11:05.248Z,12.22
2018-05-12T00:12:05.239Z,12.18
2018-05-12T00:13:05.230Z,12.12
2018-05-12T00:14:05.223Z,12.12
2018-05-12T00:15:05.293Z,12.12
2018-05-12T00:16:05.207Z,12.09
2018-05-12T00:17:05.199Z,12.09
2018-05-12T00:18:05.191Z,12.03
2018-05-12T00:19:05.184Z,12.10
2018-05-12T00:20:05.175Z,12.07
2018-05-12T00:21:05.167Z,12.10
2018-05-12T00:22:05.159Z,12.12
2018-05-12T00:23:05.152Z,12.12
2018-05-12T00:24:05.144Z,12.12
2018-05-12T00:25:05.135Z,12.09
2018-05-12T00:26:05.129Z,12.03
2018-05-12T00:27:05.120Z,12.04
2018-05-12T00:28:05.112Z,12.06
2018-05-12T00:29:05.106Z,12.02
2018-05-12T00:30:05.095Z,11.90
2018-05-12T00:31:05.088Z,11.94
2018-05-12T00:32:05.080Z,11.99
2018-05-12T00:33:05.071Z,12.07
2018-05-12T00:34:05.064Z,12.02
2018-05-12T00:35:05.056Z,11.97
2018-05-12T00:36:05.048Z,11.95
2018-05-12T00:37:05.039Z,11.83
2018-05-12T00:38:05.032Z,11.91
2018-05-12T00:39:05.024Z,11.94
2018-05-12T00:40:05.016Z,11.81
2018-05-12T00:41:05.008Z,11.83
2018-05-12T00:42:05.005Z,11.81
2018-05-12T00:43:05.040Z,11.83
2018-05-12T00:44:04.984Z,11.81
2018-05-12T00:45:04.976Z,11.65
2018-05-12T00:46:04.968Z,11.62
2018-05-12T00:47:04.959Z,11.62
2018-05-12T00:48:04.952Z,11.62
2018-05-12T00:49:04.943Z,11.57
2018-05-12T00:50:04.936Z,11.59
2018-05-12T00:51:04.928Z,11.62
2018-05-12T00:52:04.920Z,11.65
2018-05-12T00:53:04.911Z,11.60
2018-05-12T00:54:04.903Z,11.63
2018-05-12T00:55:04.896Z,11.65
2018-05-12T00:56:04.888Z,11.63
2018-05-12T00:57:04.881Z,11.66
2018-05-12T00:58:04.872Z,11.57
2018-05-12T00:59:04.864Z,11.57
2018-05-12T01:00:04.856Z,11.62
2018-05-12T01:01:04.848Z,11.77
2018-05-12T01:02:04.840Z,11.77
2018-05-12T01:03:04.836Z,11.77
2018-05-12T01:04:04.824Z,11.81
2018-05-12T01:05:04.816Z,11.77
2018-05-12T01:06:04.808Z,11.73
2018-05-12T01:07:04.800Z,11.75
2018-05-12T01:08:04.793Z,11.73
2018-05-12T01:09:04.784Z,11.81
2018-05-12T01:10:04.777Z,11.75
2018-05-12T01:11:04.769Z,11.75
2018-05-12T01:12:04.761Z,11.78
2018-05-12T01:13:04.752Z,11.84
2018-05-12T01:14:04.745Z,11.84
2018-05-12T01:15:04.737Z,11.81
2018-05-12T01:16:04.729Z,11.88
2018-05-12T01:17:04.727Z,11.91
2018-05-12T01:18:04.713Z,11.94
2018-05-12T01:19:04.705Z,11.91
2018-05-12T01:20:04.697Z,11.91
2018-05-12T01:21:04.689Z,11.94
2018-05-12T01:22:04.681Z,11.88
2018-05-12T01:23:04.674Z,11.99
2018-05-12T01:24:04.667Z,12.03
2018-05-12T01:25:04.657Z,12.04
2018-05-12T01:26:04.653Z,12.02
2018-05-12T01:27:04.642Z,12.10
2018-05-12T01:28:04.638Z,12.13
2018-05-12T01:29:04.625Z,12.18
2018-05-12T01:30:04.618Z,12.15
2018-05-12T01:31:04.611Z,12.15
2018-05-12T01:32:04.603Z,12.15
2018-05-12T01:33:04.594Z,12.18
2018-05-12T01:34:04.586Z,12.18
2018-05-12T01:35:04.578Z,12.13
2018-05-12T01:36:04.570Z,12.12
2018-05-12T01:37:04.562Z,12.10
2018-05-12T01:38:04.554Z,11.97
2018-05-12T01:39:04.546Z,11.99
2018-05-12T01:40:04.539Z,11.97
2018-05-12T01:41:04.529Z,11.87
2018-05-12T01:42:04.521Z,11.91
2018-05-12T01:43:04.515Z,11.80
2018-05-12T01:44:04.507Z,11.90
2018-05-12T01:45:04.497Z,11.90
2018-05-12T01:46:04.490Z,11.91
2018-05-12T01:47:04.482Z,11.99
2018-05-12T01:48:04.474Z,11.95
2018-05-12T01:49:04.466Z,11.95
2018-05-12T01:50:04.456Z,12.02
2018-05-12T01:51:04.450Z,12.04
2018-05-12T01:52:04.441Z,12.03
2018-05-12T01:53:04.432Z,12.06
2018-05-12T01:54:04.424Z,12.03
2018-05-12T01:55:04.417Z,12.00
2018-05-12T01:56:04.409Z,11.99
2018-05-12T01:57:04.399Z,12.04
2018-05-12T01:58:04.392Z,12.06
2018-05-12T01:59:04.383Z,11.95
2018-05-12T02:00:04.376Z,12.02
2018-05-12T02:01:04.368Z,11.91
2018-05-12T02:02:04.359Z,12.03
2018-05-12T02:03:04.351Z,11.99
2018-05-12T02:04:04.344Z,11.88
2018-05-12T02:05:04.334Z,11.81
2018-05-12T02:06:04.326Z,11.81
2018-05-12T02:07:04.320Z,11.84
2018-05-12T02:08:04.311Z,11.84
2018-05-12T02:09:04.302Z,11.88
2018-05-12T02:10:04.294Z,11.88
2018-05-12T02:11:04.285Z,11.83
2018-05-12T02:12:04.277Z,11.73
2018-05-12T02:13:04.268Z,11.62
2018-05-12T02:14:04.261Z,11.72
2018-05-12T02:15:04.255Z,11.57
2018-05-12T02:16:04.245Z,11.60
2018-05-12T02:17:04.235Z,11.65
2018-05-12T02:18:04.230Z,11.57
2018-05-12T02:19:04.220Z,11.66
2018-05-12T02:20:04.299Z,11.68
2018-05-12T02:21:04.202Z,11.66
2018-05-12T02:22:04.194Z,11.65
2018-05-12T02:23:04.187Z,11.59
2018-05-12T02:24:04.178Z,11.63
2018-05-12T02:25:04.169Z,11.68
2018-05-12T02:26:04.161Z,11.62
2018-05-12T02:27:04.154Z,11.62
2018-05-12T02:28:04.146Z,11.63
2018-05-12T02:29:04.136Z,11.65
2018-05-12T02:30:04.129Z,11.66
2018-05-12T02:31:04.122Z,11.66
2018-05-12T02:32:04.112Z,11.65
2018-05-12T02:33:04.106Z,11.62
2018-05-12T02:34:04.095Z,11.55
2018-05-12T02:35:04.088Z,11.55
2018-05-12T02:36:04.079Z,11.57
2018-05-12T02:37:04.070Z,11.52
2018-05-12T02:38:04.062Z,11.55
2018-05-12T02:39:04.054Z,11.57
2018-05-12T02:40:04.046Z,11.52
2018-05-12T02:41:04.037Z,11.48
2018-05-12T02:42:04.028Z,11.47
2018-05-12T02:43:04.021Z,11.51
2018-05-12T02:44:04.013Z,11.43
2018-05-12T02:45:04.003Z,11.50
2018-05-12T02:46:04.002Z,11.43
2018-05-12T02:47:03.987Z,11.40
2018-05-12T02:48:03.979Z,11.35
2018-05-12T02:49:03.969Z,11.29
2018-05-12T02:50:03.962Z,11.23
2018-05-12T02:51:03.953Z,11.15
2018-05-12T02:52:03.949Z,11.15
2018-05-12T02:53:03.936Z,11.10
2018-05-12T02:54:03.927Z,11.02
2018-05-12T02:55:03.920Z,11.00
2018-05-12T02:56:03.915Z,10.97
2018-05-12T02:57:03.904Z,10.86
2018-05-12T02:58:03.903Z,10.94
2018-05-12T02:59:03.887Z,10.94
2018-05-12T03:00:03.879Z,10.87
2018-05-12T03:01:03.869Z,10.81
2018-05-12T03:02:03.872Z,10.87
2018-05-12T03:03:03.853Z,10.86
2018-05-12T03:04:03.849Z,10.87
2018-05-12T03:05:03.837Z,10.81
2018-05-12T03:06:03.828Z,10.76
2018-05-12T03:07:03.820Z,10.82
2018-05-12T03:08:03.811Z,10.89
2018-05-12T03:09:03.803Z,10.87
2018-05-12T03:10:03.794Z,10.81
2018-05-12T03:11:03.786Z,10.78
2018-05-12T03:12:03.778Z,10.75
2018-05-12T03:13:03.769Z,10.72
2018-05-12T03:14:03.762Z,10.78
2018-05-12T03:15:03.752Z,10.84
2018-05-12T03:16:03.745Z,10.82
2018-05-12T03:17:03.735Z,10.82
2018-05-12T03:18:03.726Z,10.81
2018-05-12T03:19:03.720Z,10.75
2018-05-12T03:20:03.713Z,10.69
2018-05-12T03:21:03.701Z,10.74
2018-05-12T03:22:03.693Z,10.74
2018-05-12T03:23:03.687Z,10.69
2018-05-12T03:24:03.677Z,10.75
2018-05-12T03:25:03.667Z,10.79
2018-05-12T03:26:03.659Z,10.84
2018-05-12T03:27:03.650Z,10.90
2018-05-12T03:28:03.642Z,10.89
2018-05-12T03:29:03.633Z,10.84
2018-05-12T03:30:03.625Z,10.82
2018-05-12T03:31:03.618Z,10.81
2018-05-12T03:32:03.608Z,10.78
2018-05-12T03:33:03.599Z,10.89
2018-05-12T03:34:03.590Z,10.81
2018-05-12T03:35:03.582Z,10.79
2018-05-12T03:36:03.576Z,10.76
2018-05-12T03:37:03.565Z,10.82
2018-05-12T03:38:03.556Z,10.76
2018-05-12T03:39:03.548Z,10.72
2018-05-12T03:40:03.540Z,10.76
2018-05-12T03:41:03.531Z,10.86
2018-05-12T03:42:03.522Z,10.79
2018-05-12T03:43:03.513Z,10.86
2018-05-12T03:44:03.506Z,10.81
2018-05-12T03:45:03.496Z,10.81
2018-05-12T03:46:03.488Z,10.71
2018-05-12T03:47:03.479Z,10.74
2018-05-12T03:48:03.471Z,10.71
2018-05-12T03:49:03.462Z,10.68
2018-05-12T03:50:03.453Z,10.69
2018-05-12T03:51:03.445Z,10.71
2018-05-12T03:52:03.437Z,10.69
2018-05-12T03:53:03.431Z,10.59
2018-05-12T03:54:03.419Z,10.71
2018-05-12T03:55:03.471Z,10.69
2018-05-12T03:56:03.402Z,10.81
2018-05-12T03:57:03.393Z,10.74
2018-05-12T03:58:03.385Z,10.75
2018-05-12T03:59:03.376Z,10.74
2018-05-12T04:00:03.454Z,10.86
2018-05-12T04:01:03.359Z,10.79
2018-05-12T04:02:03.351Z,10.75
2018-05-12T04:03:03.342Z,10.86
2018-05-12T04:04:03.334Z,10.78
2018-05-12T04:05:03.325Z,10.72
2018-05-12T04:06:03.316Z,10.75
2018-05-12T04:07:03.308Z,10.72
2018-05-12T04:08:03.300Z,10.81
2018-05-12T04:09:03.290Z,10.78
2018-05-12T04:10:03.281Z,10.82
2018-05-12T04:11:03.273Z,10.81
2018-05-12T04:12:03.265Z,10.76
2018-05-12T04:13:03.256Z,10.84
2018-05-12T04:14:03.248Z,10.76
2018-05-12T04:15:03.239Z,10.90
2018-05-12T04:16:03.231Z,10.84
2018-05-12T04:17:03.250Z,10.93
2018-05-12T04:18:03.213Z,10.87
2018-05-12T04:19:03.205Z,10.87
2018-05-12T04:20:03.197Z,10.81
2018-05-12T04:21:03.211Z,10.87
2018-05-12T04:22:03.179Z,10.81
2018-05-12T04:23:03.170Z,10.79
2018-05-12T04:24:03.163Z,10.72
2018-05-12T04:25:03.153Z,10.69
2018-05-12T04:26:03.145Z,10.82
2018-05-12T04:27:03.136Z,10.84
2018-05-12T04:28:03.128Z,10.82
2018-05-12T04:29:03.118Z,10.81
2018-05-12T04:30:03.110Z,10.84
2018-05-12T04:31:03.102Z,10.90
2018-05-12T04:32:03.094Z,10.97
2018-05-12T04:33:03.084Z,10.93
2018-05-12T04:34:03.076Z,11.00
2018-05-12T04:35:03.068Z,11.00
2018-05-12T04:36:03.059Z,10.99
2018-05-12T04:37:03.055Z,10.99
2018-05-12T04:38:03.041Z,11.07
2018-05-12T04:39:03.034Z,11.07
2018-05-12T04:40:03.025Z,11.14
2018-05-12T04:41:03.016Z,11.18
2018-05-12T04:42:03.070Z,11.22
2018-05-12T04:43:02.999Z,11.19
2018-05-12T04:44:02.991Z,11.37
2018-05-12T04:45:02.982Z,11.41
2018-05-12T04:46:02.972Z,11.37
2018-05-12T04:47:02.964Z,11.36
2018-05-12T04:48:02.956Z,11.40
2018-05-12T04:49:02.947Z,11.50
2018-05-12T04:50:02.938Z,11.57
2018-05-12T04:51:02.930Z,11.51
2018-05-12T04:52:02.921Z,11.57
2018-05-12T04:53:02.911Z,11.60
2018-05-12T04:54:02.904Z,11.54
2018-05-12T04:55:02.897Z,11.57
2018-05-12T04:56:02.887Z,11.66
2018-05-12T04:57:02.880Z,11.65
2018-05-12T04:58:02.869Z,11.63
2018-05-12T04:59:02.863Z,11.80
2018-05-12T05:00:02.853Z,11.80
2018-05-12T05:01:02.843Z,11.86
2018-05-12T05:02:02.836Z,11.86
2018-05-12T05:03:02.830Z,11.94
2018-05-12T05:04:02.820Z,11.99
2018-05-12T05:05:02.814Z,11.99
2018-05-12T05:06:02.803Z,12.13
2018-05-12T05:07:02.795Z,12.09
2018-05-12T05:08:02.788Z,12.13
2018-05-12T05:09:02.781Z,12.24
2018-05-12T05:10:02.771Z,12.27
2018-05-12T05:11:02.762Z,12.29
2018-05-12T05:12:02.762Z,12.47
2018-05-12T05:13:02.747Z,12.58
2018-05-12T05:14:02.737Z,12.57
2018-05-12T05:15:02.730Z,12.53
2018-05-12T05:16:02.722Z,12.65
2018-05-12T05:17:02.713Z,12.73
2018-05-12T05:18:02.705Z,12.86
2018-05-12T05:19:02.698Z,12.86
2018-05-12T05:20:02.692Z,12.94
2018-05-12T05:21:02.681Z,12.94
2018-05-12T05:22:02.674Z,13.00
2018-05-12T05:23:02.666Z,12.97
2018-05-12T05:24:02.659Z,13.09
2018-05-12T05:25:02.650Z,13.11
2018-05-12T05:26:02.643Z,13.19
2018-05-12T05:27:02.635Z,13.23
2018-05-12T05:28:02.628Z,13.35
2018-05-12T05:29:02.619Z,13.35
2018-05-12T05:30:02.612Z,13.50
2018-05-12T05:31:02.605Z,13.57
2018-05-12T05:32:02.598Z,13.70
2018-05-12T05:33:02.590Z,13.67
2018-05-12T05:34:02.583Z,13.72
2018-05-12T05:35:02.575Z,13.78
2018-05-12T05:36:02.572Z,13.85
2018-05-12T05:37:02.562Z,13.89
2018-05-12T05:38:02.555Z,14.04
2018-05-12T05:39:02.548Z,14.12
2018-05-12T05:40:02.541Z,14.14
2018-05-12T05:41:02.537Z,14.25
2018-05-12T05:42:02.525Z,14.26
2018-05-12T05:43:02.521Z,14.36
2018-05-12T05:44:02.514Z,14.40
2018-05-12T05:45:02.506Z,14.43
2018-05-12T05:46:02.499Z,14.55
2018-05-12T05:47:02.496Z,14.66
2018-05-12T05:48:02.487Z,14.77
2018-05-12T05:49:02.479Z,14.84
2018-05-12T05:50:02.473Z,14.94
2018-05-12T05:51:02.467Z,14.97
2018-05-12T05:52:02.462Z,15.06
2018-05-12T05:53:02.455Z,15.03
2018-05-12T05:54:02.449Z,15.15
2018-05-12T05:55:02.444Z,15.18
2018-05-12T05:56:02.438Z,15.25
2018-05-12T05:57:02.432Z,15.40
2018-05-12T05:58:02.427Z,15.44
2018-05-12T05:59:02.421Z,15.57
2018-05-12T06:00:02.417Z,15.67
2018-05-12T06:01:02.410Z,15.73
2018-05-12T06:02:02.407Z,15.79
2018-05-12T06:03:02.400Z,15.86
2018-05-12T06:04:02.400Z,15.95
2018-05-12T06:05:02.392Z,15.98
2018-05-12T06:06:02.388Z,16.02
2018-05-12T06:07:02.388Z,16.12
2018-05-12T06:08:02.380Z,16.13
2018-05-12T06:09:02.371Z,16.26
2018-05-12T06:10:02.365Z,16.33
2018-05-12T06:11:02.364Z,16.39
2018-05-12T06:12:02.358Z,16.39
2018-05-12T06:13:02.351Z,16.39
2018-05-12T06:14:02.348Z,16.50
2018-05-12T06:15:02.344Z,16.53
2018-05-12T06:16:02.343Z,16.50
2018-05-12T06:17:02.337Z,16.49
2018-05-12T06:18:02.346Z,16.60
2018-05-12T06:19:02.327Z,16.56
2018-05-12T06:20:02.322Z,16.53
2018-05-12T06:21:02.318Z,16.61
2018-05-12T06:22:02.315Z,16.61
2018-05-12T06:23:02.403Z,16.60
2018-05-12T06:24:02.306Z,16.74
2018-05-12T06:25:02.309Z,16.71
2018-05-12T06:26:02.298Z,16.78
2018-05-12T06:27:02.296Z,16.64
2018-05-12T06:28:02.297Z,16.74
2018-05-12T06:29:02.285Z,16.81
2018-05-12T06:30:02.282Z,16.84
2018-05-12T06:31:02.283Z,16.76
2018-05-12T06:32:02.275Z,16.83
2018-05-12T06:33:02.271Z,16.79
2018-05-12T06:34:02.267Z,16.91
2018-05-12T06:35:02.264Z,16.96
2018-05-12T06:36:02.261Z,17.01
2018-05-12T06:37:02.255Z,17.01
2018-05-12T06:38:02.254Z,17.05
2018-05-12T06:39:02.249Z,17.11
2018-05-12T06:40:02.245Z,17.15
2018-05-12T06:41:02.242Z,17.19
2018-05-12T06:42:02.237Z,17.24
2018-05-12T06:43:02.234Z,17.22
2018-05-12T06:44:02.233Z,17.26
2018-05-12T06:45:02.227Z,17.30
2018-05-12T06:46:02.224Z,17.33
2018-05-12T06:47:02.221Z,17.39
2018-05-12T06:48:02.223Z,17.57
2018-05-12T06:49:02.288Z,17.67
2018-05-12T06:50:02.212Z,17.74
2018-05-12T06:51:02.214Z,17.85
2018-05-12T06:52:02.205Z,18.00
2018-05-12T06:53:02.201Z,18.08
2018-05-12T06:54:02.204Z,18.15
2018-05-12T06:55:02.197Z,18.20
2018-05-12T06:56:02.196Z,18.40
2018-05-12T06:57:02.189Z,18.35
2018-05-12T06:58:02.187Z,18.37
2018-05-12T06:59:02.185Z,18.26
2018-05-12T07:00:02.183Z,18.19
2018-05-12T07:01:02.180Z,18.41
2018-05-12T07:02:02.178Z,18.59
2018-05-12T07:03:02.175Z,18.68
2018-05-12T07:04:02.174Z,18.84
2018-05-12T07:05:02.171Z,18.86
2018-05-12T07:06:02.170Z,18.92
2018-05-12T07:07:02.168Z,19.04
2018-05-12T07:08:02.168Z,19.22
2018-05-12T07:09:02.169Z,19.29
2018-05-12T07:10:02.165Z,19.36
2018-05-12T07:11:02.165Z,19.41
2018-05-12T07:12:02.165Z,19.48
2018-05-12T07:13:02.193Z,19.73
2018-05-12T07:14:02.165Z,19.73
2018-05-12T07:15:02.173Z,19.92
2018-05-12T07:16:02.168Z,20.13
2018-05-12T07:17:02.169Z,20.41
2018-05-12T07:18:02.174Z,20.60
2018-05-12T07:19:02.175Z,20.80
2018-05-12T07:20:02.179Z,20.90
2018-05-12T07:21:02.184Z,21.03
2018-05-12T07:22:02.186Z,21.09
2018-05-12T07:23:02.191Z,21.29
2018-05-12T07:24:02.196Z,21.43
2018-05-12T07:25:02.200Z,21.62
2018-05-12T07:26:02.206Z,21.82
2018-05-12T07:27:02.211Z,21.82
2018-05-12T07:28:02.217Z,21.88
2018-05-12T07:29:02.226Z,21.76
2018-05-12T07:30:02.229Z,21.93
2018-05-12T07:31:02.236Z,21.88
2018-05-12T07:32:02.245Z,22.07
2018-05-12T07:33:02.250Z,22.10
2018-05-12T07:34:02.259Z,22.15
2018-05-12T07:35:02.267Z,22.20
2018-05-12T07:36:02.271Z,22.18
2018-05-12T07:37:02.284Z,22.22
2018-05-12T07:38:02.284Z,22.18
2018-05-12T07:39:02.378Z,22.17
2018-05-12T07:40:02.299Z,22.15
2018-05-12T07:41:02.305Z,22.10
2018-05-12T07:42:02.313Z,22.14
2018-05-12T07:43:02.319Z,22.15
2018-05-12T07:44:02.326Z,22.41
2018-05-12T07:45:02.407Z,22.59
2018-05-12T07:46:02.341Z,22.75
2018-05-12T07:47:02.348Z,22.84
2018-05-12T07:48:02.356Z,23.03
2018-05-12T07:49:02.364Z,23.25
2018-05-12T07:50:02.379Z,23.50
2018-05-12T07:51:02.381Z,23.59
2018-05-12T07:52:02.390Z,23.66
2018-05-12T07:53:02.400Z,23.73
2018-05-12T07:54:02.423Z,23.87
2018-05-12T07:55:02.417Z,23.78
2018-05-12T07:56:02.427Z,23.83
2018-05-12T07:57:02.501Z,23.95
2018-05-12T07:58:02.444Z,24.03
2018-05-12T07:59:02.455Z,23.92
2018-05-12T08:00:02.464Z,23.63
2018-05-12T08:01:02.472Z,23.54
2018-05-12T08:02:02.482Z,23.46
2018-05-12T08:03:02.491Z,23.50
2018-05-12T08:04:02.499Z,23.51
2018-05-12T08:05:02.508Z,23.66
2018-05-12T08:06:02.517Z,23.87
2018-05-12T08:07:02.528Z,23.88
2018-05-12T08:08:02.536Z,23.95
2018-05-12T08:09:02.544Z,24.05
2018-05-12T08:10:02.554Z,24.10
2018-05-12T08:11:02.563Z,24.17
2018-05-12T08:12:02.573Z,24.23
2018-05-12T08:13:02.582Z,24.48
2018-05-12T08:14:02.594Z,24.45
2018-05-12T08:15:02.606Z,24.54
2018-05-12T08:16:02.613Z,24.77
2018-05-12T08:17:02.626Z,25.01
2018-05-12T08:18:02.632Z,25.11
2018-05-12T08:19:02.643Z,25.16
2018-05-12T08:20:02.657Z,25.14
2018-05-12T08:21:02.665Z,25.22
2018-05-12T08:22:02.675Z,25.13
2018-05-12T08:23:02.687Z,25.13
2018-05-12T08:24:02.698Z,25.01
2018-05-12T08:25:02.708Z,24.76
2018-05-12T08:26:02.767Z,24.69
2018-05-12T08:27:02.729Z,24.69
2018-05-12T08:28:02.741Z,24.76
2018-05-12T08:29:02.750Z,24.88
2018-05-12T08:30:02.810Z,24.91
2018-05-12T08:31:02.772Z,24.98
2018-05-12T08:32:02.783Z,25.08
2018-05-12T08:33:02.798Z,25.18
2018-05-12T08:34:02.804Z,25.28
2018-05-12T08:35:02.815Z,25.31
2018-05-12T08:36:02.828Z,25.32
2018-05-12T08:37:02.841Z,25.35
2018-05-12T08:38:02.848Z,25.32
2018-05-12T08:39:02.860Z,25.38
2018-05-12T08:40:02.872Z,25.33
2018-05-12T08:41:02.882Z,25.36
2018-05-12T08:42:02.897Z,25.48
2018-05-12T08:43:02.907Z,25.43
2018-05-12T08:44:02.919Z,25.36
2018-05-12T08:45:02.930Z,25.10
2018-05-12T08:46:02.942Z,25.13
2018-05-12T08:47:02.954Z,24.98
2018-05-12T08:48:02.965Z,25.14
2018-05-12T08:49:02.976Z,25.10
2018-05-12T08:50:02.988Z,24.93
2018-05-12T08:51:02.999Z,24.55
2018-05-12T08:52:03.013Z,24.36
2018-05-12T08:53:03.021Z,24.39
2018-05-12T08:54:03.033Z,24.24
2018-05-12T08:55:03.042Z,24.28
2018-05-12T08:56:03.055Z,24.38
2018-05-12T08:57:03.062Z,24.55
2018-05-12T08:58:03.075Z,24.68
2018-05-12T08:59:03.084Z,24.98
2018-05-12T09:00:03.146Z,25.31
2018-05-12T09:01:03.106Z,25.60
2018-05-12T09:02:03.120Z,25.84
2018-05-12T09:03:03.131Z,25.93
2018-05-12T09:04:03.143Z,25.75
2018-05-12T09:05:03.154Z,25.72
2018-05-12T09:06:03.166Z,25.69
2018-05-12T09:07:03.178Z,25.73
2018-05-12T09:08:03.189Z,25.80
2018-05-12T09:09:03.200Z,25.85
2018-05-12T09:10:03.212Z,26.07
2018-05-12T09:11:03.225Z,26.22
2018-05-12T09:12:03.240Z,25.99
2018-05-12T09:13:03.248Z,25.77
2018-05-12T09:14:03.260Z,25.62
2018-05-12T09:15:03.272Z,25.43
2018-05-12T09:16:03.287Z,25.50
2018-05-12T09:17:03.293Z,25.48
2018-05-12T09:18:03.306Z,25.62
2018-05-12T09:19:03.341Z,25.54
2018-05-12T09:20:03.328Z,25.47
2018-05-12T09:21:03.347Z,25.31
2018-05-12T09:22:03.349Z,25.13
2018-05-12T09:23:03.361Z,25.22
2018-05-12T09:24:03.372Z,25.29
2018-05-12T09:25:03.381Z,25.50
2018-05-12T09:26:03.392Z,25.47
2018-05-12T09:27:03.403Z,25.62
2018-05-12T09:28:03.415Z,25.87
2018-05-12T09:29:03.425Z,26.07
2018-05-12T09:30:03.437Z,26.13
2018-05-12T09:31:03.452Z,25.99
2018-05-12T09:32:03.460Z,26.10
2018-05-12T09:33:03.471Z,26.26
2018-05-12T09:34:03.482Z,26.02
2018-05-12T09:35:03.493Z,25.80
2018-05-12T09:36:03.507Z,25.59
2018-05-12T09:37:03.515Z,25.48
2018-05-12T09:38:03.525Z,25.44
2018-05-12T09:39:03.536Z,25.41
2018-05-12T09:40:03.546Z,25.51
2018-05-12T09:41:03.557Z,25.58
2018-05-12T09:42:03.568Z,25.63
2018-05-12T09:43:03.577Z,25.55
2018-05-12T09:44:03.588Z,25.65
2018-05-12T09:45:03.599Z,25.58
2018-05-12T09:46:03.614Z,25.72
2018-05-12T09:47:03.623Z,25.91
2018-05-12T09:48:03.629Z,26.10
2018-05-12T09:49:03.639Z,26.07
2018-05-12T09:50:03.650Z,26.19
2018-05-12T09:51:03.661Z,26.06
2018-05-12T09:52:03.672Z,25.69
2018-05-12T09:53:03.682Z,25.78
2018-05-12T09:54:03.692Z,25.78
2018-05-12T09:55:03.704Z,25.96
2018-05-12T09:56:03.714Z,26.15
2018-05-12T09:57:03.724Z,26.38
2018-05-12T09:58:03.736Z,26.71
2018-05-12T09:59:03.748Z,26.78
2018-05-12T10:00:03.759Z,26.85
2018-05-12T10:01:03.769Z,26.59
2018-05-12T10:02:03.784Z,26.56
2018-05-12T10:03:03.792Z,26.51
2018-05-12T10:04:03.804Z,26.58
2018-05-12T10:05:03.818Z,26.52
2018-05-12T10:06:03.827Z,26.63
2018-05-12T10:07:03.838Z,26.63
2018-05-12T10:08:03.852Z,26.63
2018-05-12T10:09:03.864Z,26.77
2018-05-12T10:10:03.873Z,26.73
2018-05-12T10:11:03.885Z,26.81
2018-05-12T10:12:03.896Z,27.08
2018-05-12T10:13:03.907Z,27.21
2018-05-12T10:14:03.919Z,26.95
2018-05-12T10:15:03.932Z,26.92
2018-05-12T10:16:03.944Z,26.89
2018-05-12T10:17:03.957Z,26.90
2018-05-12T10:18:03.965Z,26.75
2018-05-12T10:19:03.978Z,26.38
2018-05-12T10:20:03.990Z,26.26
2018-05-12T10:21:03.999Z,26.25
2018-05-12T10:22:04.011Z,26.18
2018-05-12T10:23:04.022Z,26.29
2018-05-12T10:24:04.034Z,26.34
2018-05-12T10:25:04.045Z,26.45
2018-05-12T10:26:04.084Z,26.47
2018-05-12T10:27:04.067Z,26.53
2018-05-12T10:28:04.078Z,26.63
2018-05-12T10:29:04.088Z,26.83
2018-05-12T10:30:04.099Z,26.89
2018-05-12T10:31:04.111Z,26.81
2018-05-12T10:32:04.122Z,26.83
2018-05-12T10:33:04.132Z,27.02
2018-05-12T10:34:04.143Z,26.93
2018-05-12T10:35:04.155Z,26.89
2018-05-12T10:36:04.168Z,26.81
2018-05-12T10:37:04.177Z,26.90
2018-05-12T10:38:04.187Z,26.77
2018-05-12T10:39:04.199Z,26.55
2018-05-12T10:40:04.212Z,26.34
2018-05-12T10:41:04.220Z,26.10
2018-05-12T10:42:04.231Z,26.06
2018-05-12T10:43:04.243Z,26.16
2018-05-12T10:44:04.252Z,26.21
2018-05-12T10:45:04.261Z,26.22
2018-05-12T10:46:04.272Z,26.31
2018-05-12T10:47:04.283Z,26.59
2018-05-12T10:48:04.293Z,26.70
2018-05-12T10:49:04.304Z,26.85
2018-05-12T10:50:04.313Z,26.95
2018-05-12T10:51:04.324Z,27.02
2018-05-12T10:52:04.337Z,26.95
2018-05-12T10:53:04.344Z,26.59
2018-05-12T10:54:04.354Z,26.23
2018-05-12T10:55:04.365Z,26.00
2018-05-12T10:56:04.374Z,25.78
2018-05-12T10:57:04.385Z,25.66
2018-05-12T10:58:04.395Z,25.54
2018-05-12T10:59:04.402Z,25.50
2018-05-12T11:00:04.412Z,25.47
2018-05-12T11:01:04.420Z,25.54
2018-05-12T11:02:04.430Z,25.77
2018-05-12T11:03:04.439Z,26.02
2018-05-12T11:04:04.448Z,26.45
2018-05-12T11:05:04.456Z,26.73
2018-05-12T11:06:04.466Z,27.02
2018-05-12T11:07:04.477Z,27.33
2018-05-12T11:08:04.490Z,27.40
2018-05-12T11:09:04.496Z,27.32
2018-05-12T11:10:04.507Z,27.36
2018-05-12T11:11:04.518Z,27.39
2018-05-12T11:12:04.530Z,27.35
2018-05-12T11:13:04.539Z,27.18
2018-05-12T11:14:04.550Z,27.20
2018-05-12T11:15:04.561Z,27.25
2018-05-12T11:16:04.691Z,27.42
2018-05-12T11:17:04.582Z,27.37
2018-05-12T11:18:04.592Z,27.33
2018-05-12T11:19:04.603Z,27.44
2018-05-12T11:20:04.614Z,27.03
2018-05-12T11:21:04.630Z,27.14
2018-05-12T11:22:04.634Z,27.21
2018-05-12T11:23:04.645Z,27.26
2018-05-12T11:24:04.656Z,27.33
2018-05-12T11:25:04.666Z,27.32
2018-05-12T11:26:04.679Z,27.60
2018-05-12T11:27:04.689Z,27.73
2018-05-12T11:28:04.701Z,28.01
2018-05-12T11:29:04.711Z,28.12
2018-05-12T11:30:04.724Z,28.20
2018-05-12T11:31:04.735Z,28.19
2018-05-12T11:32:04.801Z,28.14
2018-05-12T11:33:04.758Z,27.82
2018-05-12T11:34:04.771Z,27.55
2018-05-12T11:35:04.783Z,27.47
2018-05-12T11:36:04.794Z,27.54
2018-05-12T11:37:04.806Z,27.73
2018-05-12T11:38:04.818Z,27.96
2018-05-12T11:39:04.831Z,28.32
2018-05-12T11:40:04.843Z,28.66
2018-05-12T11:41:04.856Z,28.93
2018-05-12T11:42:04.869Z,29.14
2018-05-12T11:43:04.883Z,29.20
2018-05-12T11:44:04.895Z,29.22
2018-05-12T11:45:04.908Z,29.41
2018-05-12T11:46:04.921Z,29.47
2018-05-12T11:47:04.937Z,29.49
2018-05-12T11:48:04.950Z,29.63
2018-05-12T11:49:04.963Z,29.84
2018-05-12T11:50:04.979Z,29.84
2018-05-12T11:51:04.993Z,29.87
2018-05-12T11:52:05.011Z,29.22
2018-05-12T11:53:05.020Z,28.66
2018-05-12T11:54:05.136Z,28.25
2018-05-12T11:55:05.149Z,28.19
2018-05-12T11:56:05.066Z,28.10
2018-05-12T11:57:05.075Z,27.96
2018-05-12T11:58:05.093Z,28.10
2018-05-12T11:59:05.103Z,28.04
2018-05-12T12:00:05.116Z,27.75
2018-05-12T12:01:05.132Z,27.87
2018-05-12T12:02:05.142Z,28.17
2018-05-12T12:03:05.156Z,28.37
2018-05-12T12:04:05.169Z,28.44
2018-05-12T12:05:05.185Z,28.42
2018-05-12T12:06:05.196Z,28.25
2018-05-12T12:07:05.208Z,28.12
2018-05-12T12:08:05.220Z,28.38
2018-05-12T12:09:05.232Z,28.52
2018-05-12T12:10:05.245Z,28.81
2018-05-12T12:11:05.261Z,29.08
2018-05-12T12:12:05.271Z,29.39
2018-05-12T12:13:05.284Z,29.63
2018-05-12T12:14:05.297Z,29.38
2018-05-12T12:15:05.311Z,29.08
2018-05-12T12:16:05.326Z,29.20
2018-05-12T12:17:05.342Z,29.10
2018-05-12T12:18:05.349Z,28.72
2018-05-12T12:19:05.366Z,28.91
2018-05-12T12:20:05.377Z,29.17
2018-05-12T12:21:05.390Z,29.23
2018-05-12T12:22:05.404Z,29.26
2018-05-12T12:23:05.415Z,29.49
2018-05-12T12:24:05.430Z,29.31
2018-05-12T12:25:05.440Z,28.91
2018-05-12T12:26:05.455Z,28.76
2018-05-12T12:27:05.467Z,28.89
2018-05-12T12:28:05.480Z,28.98
2018-05-12T12:29:05.496Z,29.24
2018-05-12T12:30:05.507Z,29.66
2018-05-12T12:31:05.520Z,29.93
2018-05-12T12:32:05.534Z,29.91
2018-05-12T12:33:05.553Z,30.00
2018-05-12T12:34:05.564Z,30.48
2018-05-12T12:35:05.574Z,30.69
2018-05-12T12:36:05.588Z,30.46
2018-05-12T12:37:05.603Z,29.84
2018-05-12T12:38:05.614Z,29.66
2018-05-12T12:39:05.629Z,29.68
2018-05-12T12:40:05.642Z,29.05
2018-05-12T12:41:05.654Z,28.85
2018-05-12T12:42:05.666Z,28.89
2018-05-12T12:43:05.679Z,28.70
2018-05-12T12:44:05.692Z,28.81
2018-05-12T12:45:05.799Z,28.84
2018-05-12T12:46:05.715Z,28.85
2018-05-12T12:47:05.727Z,28.60
2018-05-12T12:48:05.740Z,28.42
2018-05-12T12:49:05.751Z,28.26
2018-05-12T12:50:05.762Z,28.08
2018-05-12T12:51:05.773Z,28.12
2018-05-12T12:52:05.785Z,28.08